createdAt,value
2022-08-09T00:02:35.000Z,5.88
2022-08-09T00:07:39.000Z,5.75
2022-08-09T00:12:44.000Z,5.75
2022-08-09T00:18:21.000Z,5.3
2022-08-09T00:22:45.000Z,5.3
2022-08-09T00:27:37.000Z,5.04
2022-08-09T00:32:37.000Z,5.36
2022-08-09T00:37:40.000Z,6.11
2022-08-09T00:44:37.000Z,6.56
2022-08-09T00:52:40.000Z,5.95
2022-08-09T00:57:45.000Z,5.6
2022-08-09T01:02:36.000Z,5.6
2022-08-09T01:08:09.000Z,5.72
2022-08-09T01:12:36.000Z,5.46
2022-08-09T01:17:40.000Z,5.48
2022-08-09T01:22:35.000Z,6.04
2022-08-09T01:27:35.000Z,6.5
2022-08-09T01:42:35.000Z,6.72
2022-08-09T01:47:41.000Z,6.93
2022-08-09T01:52:36.000Z,6.94
2022-08-09T02:02:41.000Z,7.06
2022-08-09T02:09:04.000Z,6.96
2022-08-09T02:18:17.000Z,6.91
2022-08-09T02:22:45.000Z,6.91
2022-08-09T02:28:08.000Z,6.89
2022-08-09T02:32:37.000Z,7.32
2022-08-09T02:37:42.000Z,7.67
2022-08-09T02:47:35.000Z,7.66
2022-08-09T02:52:39.000Z,7.9
2022-08-09T02:57:35.000Z,7.9
2022-08-09T03:02:37.000Z,7.5
2022-08-09T03:07:35.000Z,8.1
2022-08-09T03:12:35.000Z,8.68
2022-08-09T03:17:37.000Z,11.19
2022-08-09T03:22:51.000Z,10.08
2022-08-09T03:27:35.000Z,11.01
2022-08-09T03:32:36.000Z,11.07
2022-08-09T03:38:08.000Z,11.86
2022-08-09T03:42:40.000Z,11.86
2022-08-09T03:47:36.000Z,11.25
2022-08-09T03:52:38.000Z,11.74
2022-08-09T03:57:35.000Z,11.43
2022-08-09T04:02:40.000Z,12
2022-08-09T04:08:03.000Z,11.8
2022-08-09T04:12:41.000Z,11.42
2022-08-09T04:17:35.000Z,12
2022-08-09T04:22:38.000Z,15.11
2022-08-09T04:27:34.000Z,15.11
2022-08-09T04:32:47.000Z,14.24
2022-08-09T04:37:56.000Z,12.86
2022-08-09T04:42:39.000Z,12.36
2022-08-09T04:47:43.000Z,11.77
2022-08-09T04:52:37.000Z,11.43
2022-08-09T05:02:37.000Z,11.1
2022-08-09T05:07:39.000Z,11.12
2022-08-09T05:12:34.000Z,11.51
2022-08-09T05:18:52.000Z,12.36
2022-08-09T05:27:35.000Z,11.8
2022-08-09T05:32:35.000Z,11.52
2022-08-09T05:37:36.000Z,11.61
2022-08-09T05:42:38.000Z,11.3
2022-08-09T05:47:40.000Z,11.78
2022-08-09T05:52:35.000Z,11.78
2022-08-09T05:58:06.000Z,11.61
2022-08-09T06:02:35.000Z,11.61
2022-08-09T06:07:37.000Z,11.17
2022-08-09T06:12:36.000Z,10.92
2022-08-09T06:17:35.000Z,10.89
2022-08-09T06:22:42.000Z,12.7
2022-08-09T06:27:52.000Z,11.36
2022-08-09T06:33:40.000Z,10.45
2022-08-09T06:42:43.000Z,10.22
2022-08-09T06:47:40.000Z,9.96
2022-08-09T06:52:35.000Z,10.21
2022-08-09T06:57:52.000Z,10.25
2022-08-09T07:02:41.000Z,10.08
2022-08-09T07:08:09.000Z,10.67
2022-08-09T07:12:52.000Z,10.82
2022-08-09T07:17:35.000Z,10.82
2022-08-09T07:22:53.000Z,9.68
2022-08-09T07:27:44.000Z,10.39
2022-08-09T07:32:44.000Z,10.51
2022-08-09T07:42:43.000Z,12.08
2022-08-09T07:47:35.000Z,11.13
2022-08-09T07:52:35.000Z,11.13
2022-08-09T07:57:46.000Z,11.43
2022-08-09T08:02:36.000Z,11.55
2022-08-09T08:08:56.000Z,10.84
2022-08-09T08:18:04.000Z,13.48
2022-08-09T08:22:39.000Z,10.83
2022-08-09T08:27:36.000Z,11.46
2022-08-09T08:32:39.000Z,12.71
2022-08-09T08:37:52.000Z,13.27
2022-08-09T08:42:42.000Z,13.27
2022-08-09T08:47:37.000Z,35.71
2022-08-09T08:53:08.000Z,14.63
2022-08-09T08:57:38.000Z,14.45
2022-08-09T09:02:41.000Z,17.98
2022-08-09T09:07:34.000Z,14.12
2022-08-09T09:12:39.000Z,13.16
2022-08-09T09:17:58.000Z,13.62
2022-08-09T09:22:38.000Z,13.62
2022-08-09T09:28:17.000Z,21.64
2022-08-09T09:32:45.000Z,13.17
2022-08-09T09:37:42.000Z,12.04
2022-08-09T09:42:35.000Z,11.82
2022-08-09T09:47:38.000Z,11.98
2022-08-09T09:52:47.000Z,13.03
2022-08-09T09:58:26.000Z,13.57
2022-08-09T10:02:36.000Z,13.57
2022-08-09T10:07:34.000Z,14.12
2022-08-09T10:12:41.000Z,14.72
2022-08-09T10:18:06.000Z,14.42
2022-08-09T10:22:42.000Z,15.27
2022-08-09T10:27:44.000Z,15.7
2022-08-09T10:32:52.000Z,15.57
2022-08-09T10:37:37.000Z,15.63
2022-08-09T10:42:37.000Z,15.9
2022-08-09T10:48:39.000Z,16.78
2022-08-09T10:57:40.000Z,15.16
2022-08-09T11:03:37.000Z,16.52
2022-08-09T11:12:35.000Z,16.18
2022-08-09T11:17:34.000Z,16.18
2022-08-09T11:22:35.000Z,16.22
2022-08-09T11:28:16.000Z,15.76
2022-08-09T11:32:35.000Z,15.15
2022-08-09T11:37:38.000Z,14.63
2022-08-09T11:42:36.000Z,14.66
2022-08-09T11:47:35.000Z,15.01
2022-08-09T11:54:10.000Z,15.71
2022-08-09T12:02:47.000Z,16.24
2022-08-09T12:07:36.000Z,16.24
2022-08-09T12:12:39.000Z,14.65
2022-08-09T12:17:54.000Z,13.77
2022-08-09T12:22:36.000Z,15.18
2022-08-09T12:29:33.000Z,16.4
2022-08-09T12:37:39.000Z,15.85
2022-08-09T12:42:35.000Z,15.85
2022-08-09T12:47:35.000Z,16.68
2022-08-09T12:53:02.000Z,16.54
2022-08-09T12:57:35.000Z,15.61
2022-08-09T13:02:36.000Z,16.41
2022-08-09T13:08:00.000Z,17.51
2022-08-09T13:12:35.000Z,16.41
2022-08-09T13:18:15.000Z,15.89
2022-08-09T13:22:55.000Z,15.89
2022-08-09T13:27:39.000Z,16.37
2022-08-09T13:32:39.000Z,16.47
2022-08-09T13:38:02.000Z,16.76
2022-08-09T13:42:36.000Z,16.32
2022-08-09T13:48:00.000Z,16.35
2022-08-09T13:52:34.000Z,17.79
2022-08-09T13:57:50.000Z,17.79
2022-08-09T14:02:36.000Z,18.04
2022-08-09T14:07:40.000Z,18.04
2022-08-09T14:12:36.000Z,19.75
2022-08-09T14:17:42.000Z,16.63
2022-08-09T14:22:34.000Z,16.14
2022-08-09T14:27:36.000Z,21.04
2022-08-09T14:32:41.000Z,17.42
2022-08-09T14:37:51.000Z,17.03
2022-08-09T14:42:50.000Z,17.64
2022-08-09T14:47:56.000Z,17.64
2022-08-09T14:52:35.000Z,16.56
2022-08-09T14:57:52.000Z,16.54
2022-08-09T15:02:34.000Z,15.02
2022-08-09T15:07:34.000Z,15.6
2022-08-09T15:12:37.000Z,15.92
2022-08-09T15:17:36.000Z,16.4
2022-08-09T15:22:36.000Z,17.08
2022-08-09T15:27:37.000Z,20.76
2022-08-09T15:32:40.000Z,20.76
2022-08-09T15:38:07.000Z,18.39
2022-08-09T15:42:35.000Z,18.38
2022-08-09T15:48:10.000Z,16.52
2022-08-09T15:52:35.000Z,17.94
2022-08-09T15:57:53.000Z,18.56
2022-08-09T16:02:37.000Z,18.37
2022-08-09T16:07:35.000Z,17.12
2022-08-09T16:12:41.000Z,17.26
2022-08-09T16:17:39.000Z,17.26
2022-08-09T16:22:37.000Z,20.08
2022-08-09T16:27:39.000Z,18.86
2022-08-09T16:32:45.000Z,18.52
2022-08-09T16:38:06.000Z,19.16
2022-08-09T16:42:36.000Z,21.04
2022-08-09T16:48:55.000Z,21.62
2022-08-09T16:57:35.000Z,22.25
2022-08-09T17:02:35.000Z,22.51
2022-08-09T17:08:58.000Z,20.25
2022-08-09T17:17:37.000Z,19.56
2022-08-09T17:22:46.000Z,19.05
2022-08-09T17:27:35.000Z,19.42
2022-08-09T17:32:45.000Z,19.16
2022-08-09T17:37:39.000Z,19.05
2022-08-09T17:42:52.000Z,19.05
2022-08-09T17:47:40.000Z,19.93
2022-08-09T17:52:37.000Z,20.2
2022-08-09T17:58:14.000Z,20.44
2022-08-09T18:02:41.000Z,20.39
2022-08-09T18:07:40.000Z,20.53
2022-08-09T18:12:50.000Z,19.74
2022-08-09T18:22:35.000Z,19.07
2022-08-09T18:28:16.000Z,20
2022-08-09T18:38:04.000Z,19.77
2022-08-09T18:47:47.000Z,20.66
2022-08-09T18:52:45.000Z,18.43
2022-08-09T18:57:54.000Z,19.66
2022-08-09T19:02:42.000Z,19.51
2022-08-09T19:07:36.000Z,19.51
2022-08-09T19:12:35.000Z,19.39
2022-08-09T19:17:41.000Z,20.54
2022-08-09T19:22:36.000Z,19.9
2022-08-09T19:27:38.000Z,20
2022-08-09T19:32:39.000Z,20.68
2022-08-09T19:42:38.000Z,21.02
2022-08-09T19:47:37.000Z,21.22
2022-08-09T19:52:36.000Z,21.22
2022-08-09T19:57:36.000Z,20.44
2022-08-09T20:04:34.000Z,18.19
2022-08-09T20:12:47.000Z,18.46
2022-08-09T20:17:41.000Z,19.52
2022-08-09T20:22:45.000Z,21.86
2022-08-09T20:27:39.000Z,21.58
2022-08-09T20:32:43.000Z,21.58
2022-08-09T20:37:34.000Z,19.58
2022-08-09T20:42:34.000Z,19.19
2022-08-09T20:47:58.000Z,18.98
2022-08-09T20:52:34.000Z,18.47
2022-08-09T20:57:42.000Z,18.59
2022-08-09T21:02:35.000Z,19.31
2022-08-09T21:07:48.000Z,18.26
2022-08-09T21:13:08.000Z,18.14
2022-08-09T21:18:36.000Z,17.93
2022-08-09T21:28:01.000Z,17.06
2022-08-09T21:32:45.000Z,17.09
2022-08-09T21:37:45.000Z,16.86
2022-08-09T21:42:38.000Z,16.09
2022-08-09T21:47:36.000Z,15.6
2022-08-09T21:52:34.000Z,15.64
2022-08-09T21:57:48.000Z,15.64
2022-08-09T22:02:46.000Z,14.68
2022-08-09T22:12:41.000Z,15.14
2022-08-09T22:17:35.000Z,15.39
2022-08-09T22:22:35.000Z,15.32
2022-08-09T22:27:34.000Z,15.49
2022-08-09T22:32:41.000Z,14.81
2022-08-09T22:37:37.000Z,14.81
2022-08-09T22:42:34.000Z,14.14
2022-08-09T22:48:45.000Z,14.21
2022-08-09T22:57:45.000Z,14.56
2022-08-09T23:02:35.000Z,14.09
2022-08-09T23:08:33.000Z,13.55
2022-08-09T23:12:34.000Z,13.62
2022-08-09T23:17:35.000Z,13.62
2022-08-09T23:22:35.000Z,14.01
2022-08-09T23:27:35.000Z,12.73
2022-08-09T23:32:34.000Z,13.2
2022-08-09T23:37:45.000Z,12.48
2022-08-09T23:47:35.000Z,11.1
2022-08-09T23:52:35.000Z,10.85
2022-08-09T23:57:34.000Z,10.85
